Time;durP1;ratioP1;P1;durP2;ratioP2;P2;SDS_P1;SDS_P2;PMS_P1;PMS_P2;Temp;Humidity;BMP_temperature;BMP_pressure;BME280_temperature;BME280_humidity;BME280_pressure;Samples;Min_cycle;Max_cycle;Signal;HPM_P1;HPM_P2
2022/08/25 00:01:53;;;;;;;;;11.50;11.50;;;;;23.87;62.81;100888.56;5092897;28;45100;-82
2022/08/25 00:04:19;;;;;;;;;10.25;10.25;;;;;23.82;62.60;100884.19;5091238;28;45340;-82
2022/08/25 00:06:46;;;;;;;;;14.00;13.50;;;;;23.84;62.70;100887.72;5092366;27;44957;-82
2022/08/25 00:09:15;;;;;;;;;11.00;11.00;;;;;23.80;62.85;100894.06;5092644;28;46704;-82
2022/08/25 00:11:42;;;;;;;;;12.25;11.50;;;;;23.77;63.13;100891.44;5091187;28;45401;-83
2022/08/25 00:14:14;;;;;;;;;12.00;11.00;;;;;23.66;63.12;100871.03;5092406;28;45214;-82
2022/08/25 00:16:40;;;;;;;;;12.00;11.00;;;;;23.70;62.72;100884.41;5092573;28;45004;-82
2022/08/25 00:19:13;;;;;;;;;12.00;12.00;;;;;23.63;63.48;100883.56;5092264;28;45586;-82
2022/08/25 00:21:39;;;;;;;;;11.00;11.00;;;;;23.56;63.38;100872.06;5092129;28;45071;-82
2022/08/25 00:24:05;;;;;;;;;14.00;12.00;;;;;23.58;63.34;100886.34;5091941;28;44917;-82
2022/08/25 00:26:31;;;;;;;;;11.50;10.50;;;;;23.50;63.59;100865.94;5091943;28;45039;-83
2022/08/25 00:28:56;;;;;;;;;12.25;11.00;;;;;23.53;63.91;100882.84;5092290;28;45068;-82
2022/08/25 00:31:23;;;;;;;;;9.75;9.50;;;;;23.49;63.61;100875.75;5073018;28;45176;-83
2022/08/25 00:33:50;;;;;;;;;13.00;12.75;;;;;23.46;63.61;100874.94;5092166;28;44990;-82
2022/08/25 00:36:17;;;;;;;;;12.75;12.75;;;;;23.28;64.06;100847.50;5092341;28;45083;-82
2022/08/25 00:38:44;;;;;;;;;13.00;12.75;;;;;23.39;64.21;100872.34;5091951;28;45577;-82
2022/08/25 00:41:12;;;;;;;;;11.00;11.00;;;;;23.30;63.68;100856.41;5092133;28;45604;-82
2022/08/25 00:43:40;;;;;;;;;12.25;12.00;;;;;23.35;64.22;100864.34;5092342;28;44935;-82
2022/08/25 00:46:07;;;;;;;;;12.50;12.50;;;;;23.23;64.03;100846.69;5091864;28;45044;-82
2022/08/25 00:48:33;;;;;;;;;12.00;12.00;;;;;23.28;64.20;100857.34;5092035;28;45056;-83
2022/08/25 00:51:00;;;;;;;;;10.75;10.75;;;;;23.30;64.68;100855.50;5091683;28;45120;-82
2022/08/25 00:53:27;;;;;;;;;11.25;11.25;;;;;23.19;64.19;100828.84;5092081;28;45094;-83
2022/08/25 00:55:53;;;;;;;;;12.00;11.50;;;;;23.29;64.23;100840.31;5091573;28;45269;-82
2022/08/25 00:58:23;;;;;;;;;11.50;11.50;;;;;23.26;64.37;100829.66;5091513;28;45526;-82
2022/08/25 01:00:51;;;;;;;;;12.25;12.25;;;;;23.32;64.40;100846.53;5091926;28;45508;-83
2022/08/25 01:03:19;;;;;;;;;12.25;12.00;;;;;23.34;64.33;100843.81;5091932;28;44974;-82
2022/08/25 01:05:45;;;;;;;;;12.50;12.00;;;;;23.24;64.02;100834.16;5091868;28;45107;-82
2022/08/25 01:08:11;;;;;;;;;14.00;13.00;;;;;23.27;64.04;100834.13;5091584;28;45130;-81
2022/08/25 01:10:41;;;;;;;;;11.75;11.75;;;;;23.26;63.90;100835.03;5091691;28;45107;-82
2022/08/25 01:13:22;;;;;;;;;13.00;13.00;;;;;23.25;64.33;100846.66;5091680;28;45026;-82
2022/08/25 01:15:52;;;;;;;;;12.50;12.50;;;;;23.09;64.70;100828.13;5091506;28;44941;-82
2022/08/25 01:18:18;;;;;;;;;12.00;11.00;;;;;23.03;64.73;100821.97;5091502;28;45247;-82
2022/08/25 01:20:47;;;;;;;;;14.25;13.75;;;;;23.15;64.72;100860.22;5072820;28;45129;-82
2022/08/25 01:23:13;;;;;;;;;13.75;13.25;;;;;23.09;64.66;100862.97;5091298;28;45183;-82
2022/08/25 01:25:55;;;;;;;;;12.00;12.00;;;;;23.06;64.81;100860.34;5091047;28;45120;-82
2022/08/25 01:28:21;;;;;;;;;13.25;13.25;;;;;22.94;65.37;100841.75;5091336;28;46095;-83
2022/08/25 01:30:46;;;;;;;;;14.00;13.00;;;;;22.93;65.06;100845.34;5091945;28;45084;-83
2022/08/25 01:33:12;;;;;;;;;14.25;13.25;;;;;22.87;65.47;100837.38;5091787;28;44974;-82
2022/08/25 01:35:39;;;;;;;;;13.25;12.25;;;;;22.98;65.57;100856.00;5091146;28;45123;-82
2022/08/25 01:38:06;;;;;;;;;12.25;12.25;;;;;22.98;65.05;100858.69;5090666;28;45332;-82
2022/08/25 01:40:32;;;;;;;;;11.50;11.50;;;;;22.96;65.06;100857.84;5090594;28;45711;-83
2022/08/25 01:43:16;;;;;;;;;10.75;10.50;;;;;22.91;65.08;100860.59;5094332;27;45036;-83
2022/08/25 01:45:45;;;;;;;;;12.00;11.75;;;;;22.83;65.91;100849.03;5093585;28;45149;-83
2022/08/25 01:48:12;;;;;;;;;12.50;11.75;;;;;22.75;65.79;100840.22;5095007;28;45763;-81
2022/08/25 01:50:38;;;;;;;;;12.50;12.50;;;;;22.79;66.03;100855.34;5094984;28;45112;-81
2022/08/25 01:53:11;;;;;;;;;11.75;11.75;;;;;22.76;65.91;100847.34;5094627;28;45040;-82
2022/08/25 01:55:52;;;;;;;;;12.00;11.50;;;;;22.60;65.96;100826.13;5094809;28;45066;-81
2022/08/25 01:58:27;;;;;;;;;14.00;14.00;;;;;22.70;66.62;100844.75;5095187;28;45076;-82
2022/08/25 02:00:55;;;;;;;;;13.75;12.50;;;;;22.62;66.65;100834.16;5094926;28;45661;-82
2022/08/25 02:03:22;;;;;;;;;14.00;14.00;;;;;22.62;66.91;100834.16;5094954;28;45063;-82
2022/08/25 02:05:47;;;;;;;;;13.50;13.00;;;;;22.61;66.88;100833.28;5094786;28;44986;-82
2022/08/25 02:08:13;;;;;;;;;12.50;12.50;;;;;22.54;66.81;100822.66;5094382;28;45635;-81
2022/08/25 02:10:39;;;;;;;;;12.00;12.00;;;;;22.58;66.58;100827.94;5094117;28;45080;-82
2022/08/25 02:13:05;;;;;;;;;12.50;11.50;;;;;22.46;67.30;100806.66;5094724;28;45076;-82
2022/08/25 02:15:31;;;;;;;;;10.50;10.50;;;;;22.58;67.02;100819.91;5094402;28;45153;-83
2022/08/25 02:17:57;;;;;;;;;13.75;13.00;;;;;22.57;66.89;100828.84;5094596;28;45972;-82
2022/08/25 02:20:23;;;;;;;;;10.75;10.25;;;;;22.50;66.68;100811.06;5094361;28;45218;-82
2022/08/25 02:22:52;;;;;;;;;12.25;12.00;;;;;22.53;66.62;100829.78;5094425;28;45118;-82
2022/08/25 02:25:19;;;;;;;;;12.25;12.25;;;;;22.48;67.24;100814.69;5094268;28;45045;-83
2022/08/25 02:27:45;;;;;;;;;12.50;12.50;;;;;22.41;67.34;100808.50;5094420;28;45790;-82
2022/08/25 02:30:12;;;;;;;;;11.25;10.50;;;;;22.37;67.37;100799.66;5094298;28;45460;-82
2022/08/25 02:32:38;;;;;;;;;10.25;10.00;;;;;22.38;67.13;100803.22;5094324;28;45152;-82
2022/08/25 02:35:05;;;;;;;;;11.75;11.75;;;;;22.23;67.19;100784.66;5094625;28;44914;-82
2022/08/25 02:37:30;;;;;;;;;14.25;13.50;;;;;22.34;67.52;100805.03;5093829;28;45533;-82
2022/08/25 02:39:56;;;;;;;;;14.75;13.75;;;;;22.16;67.28;100762.44;5093790;28;45703;-82
2022/08/25 02:42:23;;;;;;;;;14.75;13.75;;;;;22.32;67.38;100795.28;5075186;28;45171;-81
2022/08/25 02:44:48;;;;;;;;;11.50;11.50;;;;;22.25;67.47;100783.72;5093494;28;45751;-81
2022/08/25 02:47:14;;;;;;;;;13.00;13.00;;;;;22.17;67.47;100779.38;5094208;28;45143;-82
2022/08/25 02:49:39;;;;;;;;;13.00;12.75;;;;;22.00;67.79;100744.75;5093814;28;45329;-82
2022/08/25 02:52:05;;;;;;;;;12.25;12.25;;;;;22.16;68.12;100773.13;5093506;28;45241;-82
2022/08/25 02:54:30;;;;;;;;;12.25;11.75;;;;;22.17;68.34;100768.66;5093641;27;45189;-82
2022/08/25 02:56:55;;;;;;;;;12.50;12.50;;;;;22.09;68.03;100756.25;5093127;28;46483;-81
2022/08/25 02:59:20;;;;;;;;;13.75;13.50;;;;;22.01;67.92;100747.41;5093959;28;44848;-82
2022/08/25 03:01:46;;;;;;;;;12.00;12.00;;;;;22.02;68.25;100757.22;5094070;28;45095;-82
2022/08/25 03:04:11;;;;;;;;;12.75;12.50;;;;;22.10;68.57;100779.41;5092632;28;45246;-81
2022/08/25 03:06:37;;;;;;;;;13.00;13.00;;;;;22.10;68.02;100778.53;5093015;28;55574;-82
2022/08/25 03:09:03;;;;;;;;;12.75;12.75;;;;;22.11;68.58;100778.53;5093561;28;45104;-82
2022/08/25 03:11:29;;;;;;;;;15.25;14.50;;;;;22.10;68.29;100774.06;5093248;28;45078;-83
2022/08/25 03:13:55;;;;;;;;;13.25;13.00;;;;;21.99;68.55;100759.94;5093696;28;44983;-82
2022/08/25 03:16:20;;;;;;;;;11.25;11.25;;;;;22.06;68.54;100772.31;5093086;28;45728;-82
2022/08/25 03:18:47;;;;;;;;;12.50;12.25;;;;;21.94;68.90;100752.88;5093370;28;44910;-82
2022/08/25 03:21:13;;;;;;;;;11.25;11.25;;;;;21.92;68.87;100754.66;5094161;28;45176;-82
2022/08/25 03:23:40;;;;;;;;;15.50;13.75;;;;;21.95;69.17;100763.53;5093310;28;45104;-82
2022/08/25 03:28:49;;;;;;;;;13.00;12.75;;;;;21.96;68.77;100768.00;5092906;28;45079;-83
2022/08/25 03:31:15;;;;;;;;;14.50;13.00;;;;;21.93;69.05;100762.69;5093242;28;44967;-82
2022/08/25 03:33:41;;;;;;;;;13.25;13.25;;;;;21.65;69.09;100700.59;5093236;28;45170;-82
2022/08/25 03:36:07;;;;;;;;;14.00;13.00;;;;;21.90;68.83;100749.34;5093172;28;46532;-82
2022/08/25 03:38:33;;;;;;;;;15.50;14.75;;;;;21.77;69.18;100718.25;5092633;28;45506;-82
2022/08/25 03:40:59;;;;;;;;;14.50;14.00;;;;;21.78;69.21;100723.63;5093021;28;44932;-81
2022/08/25 03:43:24;;;;;;;;;12.75;12.75;;;;;21.86;69.32;100744.91;5093417;28;44942;-81
2022/08/25 03:45:49;;;;;;;;;14.00;13.50;;;;;21.75;69.36;100728.13;5092905;28;44939;-81
2022/08/25 03:48:15;;;;;;;;;12.00;12.00;;;;;21.86;69.03;100742.25;5093327;28;45070;-82
2022/08/25 03:50:49;;;;;;;;;16.00;15.00;;;;;21.85;68.88;100740.47;5092669;28;45099;-82
2022/08/25 03:53:15;;;;;;;;;15.50;15.00;;;;;21.88;69.37;100748.47;5092771;28;45165;-81
2022/08/25 03:55:40;;;;;;;;;12.50;11.75;;;;;21.84;69.38;100744.06;5092629;28;45379;-82
2022/08/25 03:58:06;;;;;;;;;11.25;11.00;;;;;21.79;69.39;100751.25;5092917;28;44940;-82
2022/08/25 04:00:31;;;;;;;;;12.75;12.50;;;;;21.77;69.36;100742.34;5092705;28;48675;-82
2022/08/25 04:02:56;;;;;;;;;12.50;12.50;;;;;21.68;69.39;100738.00;5092935;28;44958;-82
2022/08/25 04:05:22;;;;;;;;;14.50;14.50;;;;;21.74;69.67;100753.97;5092101;27;45065;-82
2022/08/25 04:07:47;;;;;;;;;13.50;12.25;;;;;21.63;69.34;100750.53;5092597;28;44963;-82
2022/08/25 04:10:13;;;;;;;;;14.25;13.75;;;;;21.72;69.89;100762.91;5092952;28;45029;-82
2022/08/25 04:12:41;;;;;;;;;15.50;15.50;;;;;21.70;70.32;100752.25;5092799;28;44869;-82
2022/08/25 04:15:08;;;;;;;;;17.50;16.50;;;;;21.59;69.86;100743.44;5092592;28;45801;-81
2022/08/25 04:17:37;;;;;;;;;13.75;13.75;;;;;21.71;69.82;100758.47;5092736;28;45492;-83
2022/08/25 04:20:04;;;;;;;;;14.00;13.00;;;;;21.59;69.86;100744.34;5092546;28;45195;-82
2022/08/25 04:22:30;;;;;;;;;13.75;13.75;;;;;21.59;70.01;100744.34;5091873;28;45272;-82
2022/08/25 04:24:57;;;;;;;;;17.00;14.50;;;;;21.61;70.23;100757.69;5092278;28;45635;-82
2022/08/25 04:27:23;;;;;;;;;15.75;14.75;;;;;21.57;70.49;100759.50;5091890;28;45502;-83
2022/08/25 04:29:48;;;;;;;;;13.33;13.33;;;;;21.45;70.63;100746.25;5074187;28;48226;-83
2022/08/25 04:32:13;;;;;;;;;13.75;13.75;;;;;21.51;70.44;100751.53;5092133;28;45076;-81
2022/08/25 04:34:39;;;;;;;;;13.50;12.00;;;;;21.50;70.44;100757.81;5092339;28;44975;-82
2022/08/25 04:37:06;;;;;;;;;15.25;14.50;;;;;21.47;70.21;100756.94;5092127;28;45020;-83
2022/08/25 04:39:32;;;;;;;;;13.50;13.25;;;;;21.47;70.38;100747.13;5092230;28;45069;-82
2022/08/25 04:41:59;;;;;;;;;14.50;13.75;;;;;21.57;70.25;100772.88;5092620;28;45306;-82
2022/08/25 04:44:24;;;;;;;;;15.75;15.75;;;;;21.27;70.59;100731.25;5092239;28;45216;-82
2022/08/25 04:46:50;;;;;;;;;16.25;15.50;;;;;21.50;70.60;100781.88;5092284;28;44921;-83
2022/08/25 04:49:15;;;;;;;;;14.25;13.75;;;;;21.35;70.64;100757.94;5092596;28;45090;-83
2022/08/25 04:51:41;;;;;;;;;14.50;14.50;;;;;21.42;70.71;100774.81;5091731;28;44914;-83
2022/08/25 04:54:10;;;;;;;;;14.50;14.00;;;;;21.36;70.39;100767.75;5092066;28;45498;-82
2022/08/25 04:56:39;;;;;;;;;13.00;12.00;;;;;21.40;70.86;100782.84;5091647;28;45509;-82
2022/08/25 04:59:08;;;;;;;;;15.25;14.25;;;;;21.37;70.98;100781.09;5092425;28;45131;-82
2022/08/25 05:01:33;;;;;;;;;16.25;16.25;;;;;21.35;71.09;100787.38;5073483;28;45069;-82
2022/08/25 05:04:03;;;;;;;;;16.75;16.25;;;;;21.30;71.10;100786.47;5091845;28;45557;-82
2022/08/25 05:06:29;;;;;;;;;15.25;14.75;;;;;21.19;71.20;100769.66;5091749;28;45309;-82
2022/08/25 05:08:56;;;;;;;;;14.25;14.00;;;;;21.27;71.46;100792.72;5092210;28;45057;-82
2022/08/25 05:11:21;;;;;;;;;15.00;14.00;;;;;21.16;71.48;100775.03;5091518;28;45057;-81
2022/08/25 05:13:49;;;;;;;;;15.25;14.50;;;;;21.30;71.32;100807.88;5091689;28;45298;-82
2022/08/25 05:16:16;;;;;;;;;15.25;15.25;;;;;21.31;71.77;100810.56;5091113;28;45778;-82
2022/08/25 05:18:41;;;;;;;;;16.25;14.75;;;;;21.31;71.66;100820.38;5091501;28;44943;-82
2022/08/25 05:21:16;;;;;;;;;14.25;13.25;;;;;21.33;71.35;100822.16;5091465;28;45013;-82
2022/08/25 05:23:43;;;;;;;;;13.50;12.00;;;;;21.10;71.61;100776.84;5091268;28;45808;-82
2022/08/25 05:26:12;;;;;;;;;16.25;15.00;;;;;21.24;71.45;100811.50;5091156;28;45183;-82
2022/08/25 05:28:42;;;;;;;;;15.75;14.50;;;;;21.33;71.34;100827.50;5091987;28;45098;-82
2022/08/25 05:31:10;;;;;;;;;16.25;15.50;;;;;21.35;71.73;100830.13;5091665;28;45252;-82
2022/08/25 05:33:37;;;;;;;;;14.75;14.75;;;;;21.31;71.65;100817.69;5091643;28;45088;-82
2022/08/25 05:36:04;;;;;;;;;17.50;16.50;;;;;21.32;71.86;100823.03;5091357;28;45052;-82
2022/08/25 05:38:29;;;;;;;;;14.00;13.50;;;;;21.19;71.89;100791.03;5091387;28;44930;-82
2022/08/25 05:41:05;;;;;;;;;14.50;13.75;;;;;21.39;71.72;100823.88;5091178;28;45196;-81
2022/08/25 05:43:31;;;;;;;;;14.50;14.00;;;;;21.40;71.75;100828.31;5091010;28;45655;-82
2022/08/25 05:45:58;;;;;;;;;16.50;15.75;;;;;21.30;71.64;100803.44;5091307;28;45143;-83
2022/08/25 05:48:25;;;;;;;;;16.25;15.25;;;;;21.35;71.80;100803.41;5091777;28;45162;-81
2022/08/25 05:50:57;;;;;;;;;14.25;13.25;;;;;21.46;71.75;100822.03;5091708;28;45155;-82
2022/08/25 05:53:23;;;;;;;;;17.75;17.00;;;;;21.35;71.65;100806.97;5090538;28;45567;-81
2022/08/25 05:55:51;;;;;;;;;16.00;15.50;;;;;21.48;71.36;100830.94;5090688;28;45405;-83
2022/08/25 05:58:17;;;;;;;;;15.25;14.25;;;;;21.37;71.37;100796.25;5091142;28;45110;-82
2022/08/25 06:00:43;;;;;;;;;17.25;16.75;;;;;21.54;71.73;100826.41;5091354;28;45233;-82
2022/08/25 06:03:08;;;;;;;;;15.50;15.00;;;;;21.48;71.59;100810.44;5090753;28;51854;-82
2022/08/25 06:05:33;;;;;;;;;14.25;13.75;;;;;21.60;71.63;100821.00;5090773;28;45057;-83
2022/08/25 06:07:59;;;;;;;;;17.00;17.00;;;;;21.62;71.37;100810.28;5090983;28;45325;-82
2022/08/25 06:10:26;;;;;;;;;14.00;14.00;;;;;21.66;71.01;100814.69;5091231;28;45149;-82
2022/08/25 06:12:51;;;;;;;;;15.00;15.00;;;;;21.70;71.02;100815.56;5090761;28;45764;-82
2022/08/25 06:15:20;;;;;;;;;13.75;13.75;;;;;21.62;70.56;100795.13;5090906;28;45119;-82
2022/08/25 06:17:46;;;;;;;;;18.50;18.25;;;;;21.77;70.75;100822.59;5090976;28;45076;-82
2022/08/25 06:20:14;;;;;;;;;15.75;15.75;;;;;21.63;70.40;100791.56;5090663;28;45088;-82
2022/08/25 06:22:40;;;;;;;;;19.50;17.50;;;;;21.83;70.45;100809.19;5090024;28;45221;-82
2022/08/25 06:25:08;;;;;;;;;16.50;14.75;;;;;21.97;70.41;100815.28;5090699;28;45216;-82
2022/08/25 06:27:34;;;;;;;;;17.50;17.00;;;;;21.98;70.56;100802.78;5090280;27;45259;-82
2022/08/25 06:30:03;;;;;;;;;15.75;15.25;;;;;22.04;70.19;100806.25;5093094;28;45164;-82
2022/08/25 06:32:31;;;;;;;;;18.00;16.75;;;;;22.18;69.85;100818.66;5094199;28;45601;-83
2022/08/25 06:34:57;;;;;;;;;18.75;16.25;;;;;22.12;69.66;100793.72;5093861;28;45153;-83
2022/08/25 06:37:22;;;;;;;;;17.00;17.00;;;;;22.15;70.54;100788.31;5075592;28;45151;-82
2022/08/25 06:39:48;;;;;;;;;16.33;16.00;;;;;22.29;69.71;100803.31;5093770;28;58914;-82
2022/08/25 06:42:13;;;;;;;;;16.67;16.00;;;;;22.44;70.08;100811.16;5093533;28;56668;-81
2022/08/25 06:44:39;;;;;;;;;17.50;17.50;;;;;22.50;69.46;100812.88;5094234;28;45128;-82
2022/08/25 06:47:05;;;;;;;;;16.25;15.75;;;;;22.55;69.63;100811.91;5094253;28;45236;-82
2022/08/25 06:49:30;;;;;;;;;18.00;17.50;;;;;22.61;68.03;100817.19;5094325;28;44895;-82
2022/08/25 06:51:55;;;;;;;;;13.75;13.75;;;;;22.61;67.16;100800.22;5093172;28;45146;-82
2022/08/25 06:54:21;;;;;;;;;14.00;14.00;;;;;22.66;66.55;100801.06;5075176;28;45087;-83
2022/08/25 06:56:50;;;;;;;;;14.00;13.50;;;;;22.74;66.60;100814.34;5094069;28;45294;-83
2022/08/25 06:59:16;;;;;;;;;14.00;14.00;;;;;22.82;65.75;100817.78;5093952;28;45258;-82
2022/08/25 07:01:42;;;;;;;;;16.00;15.25;;;;;22.91;66.09;100817.69;5093769;28;46430;-83
2022/08/25 07:04:07;;;;;;;;;12.75;11.50;;;;;22.81;65.22;100799.94;5094083;28;45151;-82
2022/08/25 07:06:36;;;;;;;;;11.25;10.75;;;;;23.00;64.78;100820.22;5093443;28;45042;-82
2022/08/25 07:09:04;;;;;;;;;13.50;11.50;;;;;22.85;64.32;100785.56;5075723;28;44995;-82
2022/08/25 07:11:33;;;;;;;;;13.00;12.25;;;;;23.04;63.92;100818.38;5093399;28;45548;-82
2022/08/25 07:14:03;;;;;;;;;11.00;11.00;;;;;23.11;63.45;100818.28;5092012;28;45463;-82
2022/08/25 07:16:30;;;;;;;;;14.75;13.75;;;;;23.07;63.33;100797.78;5093606;28;44976;-83
2022/08/25 07:18:56;;;;;;;;;12.00;12.00;;;;;23.17;63.60;100815.50;5094332;28;45150;-82
2022/08/25 07:21:23;;;;;;;;;15.00;14.25;;;;;23.03;63.65;100787.13;5093240;28;45212;-82
2022/08/25 07:23:49;;;;;;;;;12.25;12.25;;;;;23.28;62.91;100815.31;5093182;28;45165;-82
2022/08/25 07:26:17;;;;;;;;;12.75;12.00;;;;;23.16;62.19;100797.63;5093045;28;45167;-82
2022/08/25 07:28:43;;;;;;;;;12.00;12.00;;;;;23.21;62.16;100802.03;5091967;28;45309;-82
2022/08/25 07:31:09;;;;;;;;;13.25;12.25;;;;;23.38;61.20;100827.66;5091875;28;45797;-82
2022/08/25 07:33:34;;;;;;;;;13.00;12.75;;;;;23.37;61.53;100819.63;5093386;28;44961;-82
2022/08/25 07:36:00;;;;;;;;;13.50;13.50;;;;;23.37;61.25;100807.09;5092921;28;45113;-82
2022/08/25 07:38:25;;;;;;;;;12.75;12.00;;;;;23.52;61.88;100824.75;5093017;28;44958;-83
2022/08/25 07:40:54;;;;;;;;;11.00;11.00;;;;;23.59;60.67;100833.56;5092712;27;45494;-82
2022/08/25 07:43:20;;;;;;;;;12.00;12.00;;;;;23.61;61.57;100823.69;5092936;28;45522;-83
2022/08/25 07:45:46;;;;;;;;;13.00;13.00;;;;;23.67;61.38;100815.56;5092812;28;45108;-83
2022/08/25 07:48:12;;;;;;;;;13.00;12.00;;;;;23.55;60.69;100792.50;5093272;28;45254;-82
2022/08/25 07:50:41;;;;;;;;;12.50;12.25;;;;;23.72;60.82;100815.47;5092892;28;45044;-82
2022/08/25 07:53:07;;;;;;;;;12.00;11.50;;;;;23.74;60.09;100806.47;5092656;28;45123;-82
2022/08/25 07:55:35;;;;;;;;;12.00;11.50;;;;;23.85;61.36;100814.34;5092376;28;45086;-82
2022/08/25 07:58:02;;;;;;;;;14.75;14.75;;;;;23.91;60.65;100814.22;5092878;28;45144;-82
2022/08/25 08:00:30;;;;;;;;;12.75;12.25;;;;;23.82;61.21;100790.25;5092541;28;46040;-82
2022/08/25 08:02:56;;;;;;;;;15.75;14.50;;;;;23.98;59.68;100802.44;5092599;28;45534;-82
2022/08/25 08:05:23;;;;;;;;;12.00;12.00;;;;;23.96;59.60;100788.16;5093086;28;45075;-83
2022/08/25 08:07:48;;;;;;;;;11.75;11.75;;;;;24.09;58.48;100792.38;5092453;28;45010;-82
2022/08/25 08:10:15;;;;;;;;;13.00;13.00;;;;;24.20;58.23;100797.53;5092214;28;45790;-82
2022/08/25 08:12:41;;;;;;;;;12.00;11.50;;;;;24.30;57.91;100811.66;5092992;28;45154;-82
2022/08/25 08:15:07;;;;;;;;;12.75;12.75;;;;;24.35;58.70;100809.75;5092782;28;45137;-82
2022/08/25 08:17:33;;;;;;;;;11.50;11.50;;;;;24.36;59.29;100804.38;5092446;28;44889;-83
2022/08/25 08:19:58;;;;;;;;;15.00;13.50;;;;;24.36;58.30;100800.81;5092043;28;45601;-83
2022/08/25 08:22:24;;;;;;;;;11.00;11.00;;;;;24.46;57.11;100810.44;5092601;28;44918;-81
2022/08/25 08:24:50;;;;;;;;;13.75;13.75;;;;;24.56;55.96;100828.13;5092146;28;45059;-83
2022/08/25 08:27:15;;;;;;;;;15.00;14.75;;;;;24.67;56.21;100855.66;5091606;28;45058;-83
2022/08/25 08:29:41;;;;;;;;;10.50;10.50;;;;;24.76;54.97;100862.63;5092656;28;47878;-83
2022/08/25 08:32:11;;;;;;;;;13.75;13.00;;;;;24.69;55.79;100802.75;5092669;28;45652;-82
2022/08/25 08:34:36;;;;;;;;;13.00;12.75;;;;;24.83;56.45;100815.03;5092602;28;45157;-82
2022/08/25 08:37:02;;;;;;;;;13.50;13.25;;;;;24.87;55.79;100816.69;5092872;28;44931;-81
2022/08/25 08:39:28;;;;;;;;;13.00;13.00;;;;;25.00;55.22;100852.25;5091705;28;45079;-82
2022/08/25 08:42:18;;;;;;;;;13.00;12.75;;;;;25.04;54.30;100825.25;5073599;28;45073;-83
2022/08/25 08:44:43;;;;;;;;;12.25;12.25;;;;;25.27;54.95;100818.44;5092106;28;44958;-82
2022/08/25 08:47:42;;;;;;;;;11.67;11.33;;;;;25.24;55.10;100802.41;5074214;28;45135;-83
2022/08/25 08:50:44;;;;;;;;;12.25;12.25;;;;;25.46;54.23;100836.78;5091945;28;46054;-82
2022/08/25 08:53:36;;;;;;;;;15.50;14.25;;;;;25.55;53.81;100838.38;5090989;28;45050;-82
2022/08/25 08:56:07;;;;;;;;;14.00;13.00;;;;;25.62;53.93;100850.75;5091429;28;45130;-82
2022/08/25 08:58:45;;;;;;;;;13.00;12.00;;;;;25.70;53.79;100845.16;5073833;28;45167;-82
2022/08/25 09:01:27;;;;;;;;;13.75;12.75;;;;;25.73;53.69;100837.91;5091599;28;45313;-85
2022/08/25 09:04:14;;;;;;;;;10.75;10.50;;;;;25.60;53.22;100817.59;5092236;28;45069;-83
2022/08/25 09:06:46;;;;;;;;;12.00;12.00;;;;;25.70;52.37;100826.31;5073419;28;44995;-82
2022/08/25 09:09:19;;;;;;;;;10.25;10.25;;;;;25.82;52.74;100835.94;5090174;28;45211;-81
2022/08/25 09:11:47;;;;;;;;;11.00;11.00;;;;;25.85;52.48;100844.78;5091671;28;45151;-82
2022/08/25 09:14:48;;;;;;;;;12.75;12.75;;;;;25.93;52.12;100841.91;5091590;28;45418;-83
2022/08/25 09:17:17;;;;;;;;;13.00;12.00;;;;;25.99;51.67;100826.44;5091738;28;45119;-82
2022/08/25 09:20:03;;;;;;;;;12.00;12.00;;;;;26.02;51.37;100824.59;5091807;28;45038;-83
2022/08/25 09:22:43;;;;;;;;;12.25;12.00;;;;;26.08;51.77;100833.38;5091144;28;45133;-83
2022/08/25 09:25:26;;;;;;;;;13.50;13.50;;;;;26.12;51.79;100832.38;5090850;28;45050;-83
2022/08/25 09:28:04;;;;;;;;;12.25;11.50;;;;;26.14;50.90;100830.50;5091854;28;45053;-83
2022/08/25 09:30:43;;;;;;;;;14.00;14.00;;;;;26.13;51.23;100822.50;5090393;28;45126;-83
2022/08/25 09:33:14;;;;;;;;;10.25;10.25;;;;;26.18;50.23;100836.72;5091414;28;45890;-83
2022/08/25 09:35:40;;;;;;;;;11.25;11.25;;;;;26.09;50.54;100820.81;5091484;28;45167;-83
2022/08/25 09:38:11;;;;;;;;;13.00;12.50;;;;;26.26;50.76;100848.16;5072839;28;45109;-83
2022/08/25 09:40:40;;;;;;;;;12.75;12.75;;;;;26.30;49.67;100838.16;5090615;28;45108;-82
2022/08/25 09:43:33;;;;;;;;;12.00;11.25;;;;;26.32;49.76;100823.72;5091146;28;45159;-83
2022/08/25 09:46:33;;;;;;;;;11.00;10.50;;;;;26.37;50.40;100826.28;5091220;28;45369;-83
2022/08/25 09:49:10;;;;;;;;;12.75;12.75;;;;;26.37;49.48;100824.47;5078558;28;44910;-83
2022/08/25 09:51:39;;;;;;;;;12.75;12.00;;;;;26.35;49.60;100807.44;5091314;28;45034;-83
2022/08/25 09:54:14;;;;;;;;;12.75;12.75;;;;;26.53;49.93;100834.84;5090868;28;45084;-82
2022/08/25 09:56:48;;;;;;;;;13.00;13.00;;;;;26.59;49.13;100829.25;5090517;28;45482;-82
2022/08/25 09:59:26;;;;;;;;;13.25;12.00;;;;;26.63;49.83;100825.53;5091313;28;44998;-83
2022/08/25 10:02:01;;;;;;;;;14.00;14.00;;;;;26.45;48.66;100787.44;5091159;28;45029;-83
2022/08/25 10:04:31;;;;;;;;;11.50;11.00;;;;;26.71;49.49;100826.19;5075827;28;46208;-83
2022/08/25 10:06:57;;;;;;;;;14.50;13.00;;;;;26.77;49.33;100828.69;5094840;28;45053;-83
2022/08/25 10:09:33;;;;;;;;;16.00;14.50;;;;;26.81;49.43;100811.50;5094636;28;45194;-83
2022/08/25 10:12:00;;;;;;;;;15.00;15.00;;;;;26.87;49.88;100814.00;5094297;28;45052;-83
2022/08/25 10:14:39;;;;;;;;;14.00;14.00;;;;;26.94;49.46;100818.25;5094055;28;45158;-83
2022/08/25 10:17:23;;;;;;;;;14.50;14.00;;;;;27.01;48.90;100818.94;5094456;28;45333;-83
2022/08/25 10:20:09;;;;;;;;;16.25;16.00;;;;;27.07;49.16;100805.25;5093161;28;45258;-83
2022/08/25 10:22:36;;;;;;;;;16.75;16.50;;;;;27.12;48.85;100814.13;5086582;28;44954;-83
2022/08/25 10:25:05;;;;;;;;;15.25;14.00;;;;;27.10;48.81;100791.72;5094321;28;45086;-84
2022/08/25 10:27:58;;;;;;;;;15.25;15.25;;;;;27.22;48.98;100803.91;5093470;28;45404;-84
2022/08/25 10:30:34;;;;;;;;;17.00;15.75;;;;;27.26;48.45;100794.78;5075871;28;45016;-82
2022/08/25 10:33:06;;;;;;;;;15.00;13.75;;;;;27.32;48.13;100791.84;5094300;28;44947;-83
2022/08/25 10:35:49;;;;;;;;;15.00;15.00;;;;;27.40;47.73;100783.50;5094208;28;45033;-83
2022/08/25 10:38:37;;;;;;;;;16.50;16.25;;;;;27.47;47.98;100785.06;5094009;28;45458;-83
2022/08/25 10:41:21;;;;;;;;;17.25;17.00;;;;;27.53;47.17;100776.72;5093769;28;45210;-82
2022/08/25 10:43:58;;;;;;;;;17.00;17.00;;;;;27.48;47.03;100763.38;5094270;28;45139;-83
2022/08/25 10:46:43;;;;;;;;;17.75;17.75;;;;;27.58;47.26;100776.56;5094040;28;45449;-83
2022/08/25 10:49:19;;;;;;;;;16.50;16.25;;;;;27.72;47.17;100785.09;5094098;28;45089;-83
2022/08/25 10:51:57;;;;;;;;;14.00;13.50;;;;;27.79;46.50;100785.78;5094070;28;45072;-83
2022/08/25 10:54:30;;;;;;;;;17.00;17.00;;;;;27.86;46.22;100790.00;5093889;28;44913;-83
2022/08/25 10:57:20;;;;;;;;;16.00;16.00;;;;;27.92;45.96;100792.47;5093337;28;46331;-83
2022/08/25 11:00:09;;;;;;;;;17.50;17.00;;;;;27.96;46.40;100789.63;5093862;28;45545;-83
2022/08/25 11:02:53;;;;;;;;;14.75;14.50;;;;;27.98;46.20;100785.06;5093825;28;45059;-83
2022/08/25 11:05:30;;;;;;;;;16.75;16.50;;;;;27.95;46.12;100770.78;5093762;28;45063;-82
2022/08/25 11:08:36;;;;;;;;;17.00;16.50;;;;;28.06;45.85;100781.19;5093315;28;45669;-81
2022/08/25 11:11:16;;;;;;;;;12.75;12.00;;;;;28.09;45.83;100786.47;5093183;28;45668;-83
2022/08/25 11:13:51;;;;;;;;;12.50;12.50;;;;;28.13;45.77;100782.69;5093702;28;45067;-83
2022/08/25 11:16:25;;;;;;;;;12.00;11.25;;;;;28.13;45.48;100780.00;5092517;28;45002;-83
2022/08/25 11:18:58;;;;;;;;;12.50;12.50;;;;;28.27;44.92;100783.06;5093464;28;48299;-82
2022/08/25 11:21:58;;;;;;;;;12.25;12.25;;;;;28.33;44.61;100773.88;5091822;28;45121;-84
2022/08/25 11:24:52;;;;;;;;;14.50;14.50;;;;;28.48;44.38;100781.41;5068805;28;45076;-82